Comox Airport
CYQQ : rendu visible

Aérodrome :











RETROUVEZ-NOUS SUR...

 
LOGIN :

S'inscrire | Disclaimer

   EN    FR    IT 

 









Légende :    VFR   VFR Marginal   IFR   IFR Intensif   IFR Très Intensif
Visi : 
Plafond : 
>= 8 km
>= 3000ft
5 à 8 km
1000 à 3000 ft
1500m à 5 km
500 à 1000 ft
800 à 1500m
200 à 500 ft
< 800m
< 200 ft
Symboles :   Orages  Brouillard  Fortes neiges  Fortes précipitations  Vent > 20 kt






- Altitude de l'aérodrome : 84 ft
- Code IATA : YQQ


CYQQ - Comox

DERNIER METAR :
  • 200400Z 32013G18KT 20SM SKC 10/00 A3010 RMK SLP194

METARs EXPIRÉS :
  • 200300Z 32011G22KT 20SM SKC 10/M00 A3008 RMK SLP187
  • 200200Z 31012G18KT 20SM SKC 11/00 A3005 RMK SLP176

TAF TAF CYQQ
Valide du 20 à 00h jusqu'au 21 à 00h UTC


192339Z 2000/2024 33010G20KT P6SM SKC
FM201000 33008KT P6SM FEW012 RMK NXT FCST BY 200600Z



MET'MAP, la Météo Aéronautique d'un coup d'oeil ! - Copyright ORBIFLY Décembre 2007 - Disclaimer

ORBIFLY MET'MAP TEAM :

Programmation & Développement : Alexandra Zaïnal
Conception & Développement : Baudouin d'Aumeries
Co-Programmation & Développement : Marc-Olivier Méhu
Soutien technique & logistique : Manuel Goepfert

Contact : metmap@orbifly.com




SOURCES & CREDITS :

   NOAA       Earth
Advisory